Time;durP1;ratioP1;P1;durP2;ratioP2;P2;SDS_P1;SDS_P2;PMS_P1;PMS_P2;Temp;Humidity;BMP_temperature;BMP_pressure;BME280_temperature;BME280_humidity;BME280_pressure;Samples;Min_cycle;Max_cycle;Signal;HPM_P1;HPM_P2
2021/10/06 00:00:11;;;;;;;10.43;1.98;;;13.40;99.90;;;11.08;100.00;99855.28;5068824;28;20056;-87
2021/10/06 00:02:43;;;;;;;7.57;2.08;;;13.40;99.90;;;11.08;100.00;99860.72;5067734;28;20056;-86
2021/10/06 00:05:11;;;;;;;4.72;1.80;;;13.40;99.90;;;10.96;100.00;99858.59;5049280;28;20115;-87
2021/10/06 00:07:39;;;;;;;8.88;1.92;;;13.40;99.90;;;10.92;100.00;99860.03;5048975;28;20101;-87
2021/10/06 00:10:08;;;;;;;9.75;2.10;;;13.30;99.90;;;10.91;100.00;99863.81;5048707;28;20077;-87
2021/10/06 00:12:37;;;;;;;10.63;2.33;;;13.30;99.90;;;10.75;100.00;99872.31;5085116;28;20056;-86
2021/10/06 00:15:06;;;;;;;6.63;2.03;;;13.30;99.90;;;10.75;100.00;99869.59;5069079;28;20050;-87
2021/10/06 00:17:35;;;;;;;5.20;1.52;;;13.20;99.90;;;10.73;100.00;99866.25;5069021;28;20128;-87
2021/10/06 00:20:07;;;;;;;7.95;2.00;;;13.20;99.90;;;10.67;100.00;99875.22;5066475;28;20099;-87
2021/10/06 00:22:35;;;;;;;12.07;1.90;;;13.20;99.90;;;10.65;100.00;99867.25;5068846;28;20106;-87
2021/10/06 00:25:03;;;;;;;12.05;2.38;;;13.10;99.90;;;10.60;100.00;99866.16;5068927;28;20040;-87
2021/10/06 00:27:30;;;;;;;7.45;1.70;;;13.10;99.90;;;10.59;100.00;99856.34;5068891;28;20144;-87
2021/10/06 00:29:57;;;;;;;9.27;1.60;;;13.10;99.90;;;10.57;100.00;99862.81;5068356;28;20505;-87
2021/10/06 00:32:25;;;;;;;10.60;2.33;;;13.10;99.90;;;10.55;100.00;99864.06;5067399;28;20143;-87
2021/10/06 00:34:53;;;;;;;14.07;2.42;;;13.00;99.90;;;10.52;100.00;99862.56;5066306;28;20182;-87
2021/10/06 00:37:21;;;;;;;7.53;1.80;;;13.00;99.90;;;10.48;100.00;99864.00;5067865;28;20127;-87
2021/10/06 00:39:49;;;;;;;6.82;1.85;;;13.00;99.90;;;10.51;100.00;99869.06;5050153;28;20102;-87
2021/10/06 00:42:16;;;;;;;8.85;2.08;;;13.00;99.90;;;10.45;100.00;99871.72;5047246;28;20106;-87
2021/10/06 00:44:43;;;;;;;5.95;1.70;;;12.90;99.90;;;10.43;100.00;99871.91;5048640;28;20041;-88
2021/10/06 00:47:13;;;;;;;6.38;1.98;;;12.90;99.90;;;10.41;100.00;99874.00;5048504;28;20041;-88
2021/10/06 00:49:41;;;;;;;7.43;1.60;;;12.90;99.90;;;10.40;100.00;99872.34;5048270;28;20076;-86
2021/10/06 00:52:11;;;;;;;5.43;1.85;;;12.90;99.90;;;10.34;100.00;99875.84;5048760;28;20037;-87
2021/10/06 00:54:40;;;;;;;11.90;2.60;;;12.80;99.90;;;10.32;100.00;99886.09;5062852;28;20052;-86
2021/10/06 00:57:08;;;;;;;5.65;1.67;;;12.80;99.90;;;10.29;100.00;99886.44;5068603;28;20041;-86
2021/10/06 00:59:35;;;;;;;8.93;1.90;;;12.80;99.90;;;10.25;100.00;99882.44;5066688;28;20135;-87
2021/10/06 01:02:03;;;;;;;12.68;2.45;;;12.70;99.90;;;10.28;100.00;99888.34;5068365;28;20137;-86
2021/10/06 01:04:31;;;;;;;9.68;2.17;;;12.70;99.90;;;10.28;100.00;99888.34;5067008;28;20044;-87
2021/10/06 01:06:59;;;;;;;4.90;1.60;;;12.70;99.90;;;10.28;100.00;99892.91;5068289;28;20048;-87
2021/10/06 01:09:29;;;;;;;5.93;1.65;;;12.70;99.90;;;10.25;100.00;99896.06;5068104;28;20052;-86
2021/10/06 01:12:01;;;;;;;6.72;1.90;;;12.70;99.90;;;10.25;100.00;99899.59;5075784;28;20048;-86
2021/10/06 01:14:28;;;;;;;6.55;1.90;;;12.70;99.90;;;10.20;100.00;99901.22;5088640;28;20063;-85
2021/10/06 01:16:56;;;;;;;9.25;1.80;;;12.70;99.90;;;10.13;100.00;99902.03;5087002;28;20098;-87
2021/10/06 01:19:27;;;;;;;5.72;1.60;;;12.70;99.90;;;10.15;100.00;99910.00;5087987;28;20131;-86
2021/10/06 01:21:58;;;;;;;5.97;1.80;;;12.60;99.90;;;10.15;100.00;99904.56;5088513;28;20048;-86
2021/10/06 01:24:28;;;;;;;9.00;1.98;;;12.60;99.90;;;10.18;100.00;99910.44;5087106;28;20095;-87
2021/10/06 01:26:55;;;;;;;8.63;2.00;;;12.60;99.90;;;10.14;100.00;99911.00;5088428;28;20068;-86
2021/10/06 01:29:23;;;;;;;8.75;1.83;;;12.60;99.90;;;10.12;100.00;99913.94;5086640;28;20137;-86
2021/10/06 01:31:51;;;;;;;6.63;1.83;;;12.60;99.90;;;10.10;100.00;99913.28;5087185;28;20068;-87
2021/10/06 01:34:20;;;;;;;8.30;1.80;;;12.60;99.90;;;10.13;100.00;99915.63;5087042;28;20044;-87
2021/10/06 01:36:50;;;;;;;14.02;2.00;;;12.60;99.90;;;10.14;100.00;99919.19;5088439;28;20044;-87
2021/10/06 01:39:21;;;;;;;6.72;1.85;;;12.60;99.90;;;10.16;100.00;99923.38;5086532;28;20105;-87
2021/10/06 01:41:49;;;;;;;7.55;1.58;;;12.60;99.90;;;10.21;100.00;99921.97;5087040;28;20093;-86
2021/10/06 01:44:19;;;;;;;11.27;2.20;;;12.50;99.90;;;10.11;100.00;99931.28;5086731;28;20044;-86
2021/10/06 01:46:48;;;;;;;10.07;2.50;;;12.60;99.90;;;10.09;100.00;99925.22;5089493;28;20477;-86
2021/10/06 01:49:15;;;;;;;11.45;2.00;;;12.50;99.90;;;10.07;100.00;99931.88;5091549;28;20052;-87
2021/10/06 01:51:42;;;;;;;11.43;2.03;;;12.50;99.90;;;10.01;100.00;99932.66;5091599;28;20048;-86
2021/10/06 01:54:11;;;;;;;5.43;1.80;;;12.50;99.90;;;10.01;100.00;99929.94;5090350;28;20143;-86
2021/10/06 01:56:40;;;;;;;7.40;2.15;;;12.50;99.90;;;10.06;100.00;99928.31;5090173;28;20102;-86
2021/10/06 01:59:07;;;;;;;13.80;2.55;;;12.50;99.90;;;10.21;100.00;99941.00;5091503;28;20062;-87
2021/10/06 02:01:35;;;;;;;12.65;2.65;;;12.50;99.90;;;10.31;100.00;99936.06;5090189;28;20407;-86
2021/10/06 02:04:02;;;;;;;9.85;2.35;;;12.50;99.90;;;10.34;100.00;99925.66;5075345;28;20421;-87
2021/10/06 02:06:29;;;;;;;11.80;2.20;;;12.40;99.90;;;10.30;100.00;99928.91;5049938;28;20041;-86
2021/10/06 02:08:56;;;;;;;15.75;2.45;;;12.50;99.90;;;10.24;100.00;99929.72;5050967;28;20095;-86
2021/10/06 02:11:24;;;;;;;9.05;1.90;;;12.50;99.90;;;10.23;100.00;99933.47;5055953;28;20044;-87
2021/10/06 02:13:53;;;;;;;13.80;2.92;;;12.50;99.90;;;10.18;100.00;99928.63;5107126;28;20237;-86
2021/10/06 02:16:20;;;;;;;10.50;2.17;;;12.50;99.90;;;10.09;100.00;99927.94;5089834;28;20102;-86
2021/10/06 02:18:47;;;;;;;9.23;2.25;;;12.50;99.90;;;10.04;100.00;99930.38;5090511;28;20059;-86
2021/10/06 02:21:14;;;;;;;8.63;2.35;;;12.50;99.90;;;10.01;100.00;99929.94;5069305;22;20918;-90
2021/10/06 02:23:42;;;;;;;8.18;2.00;;;12.50;99.90;;;10.04;100.00;99930.38;5034381;28;20521;-90
2021/10/06 02:26:09;;;;;;;6.57;1.92;;;12.50;99.90;;;10.01;100.00;99927.22;5029635;28;20045;-90
2021/10/06 02:28:36;;;;;;;9.50;2.13;;;12.50;99.90;;;10.05;100.00;99936.66;5051005;28;20130;-90
2021/10/06 02:31:05;;;;;;;11.20;2.28;;;12.50;99.90;;;10.10;100.00;99937.75;5050310;28;20052;-90
2021/10/06 02:33:32;;;;;;;13.80;2.63;;;12.50;99.90;;;10.20;100.00;99940.13;5033401;28;20042;-91
2021/10/06 02:36:00;;;;;;;10.32;2.15;;;12.50;99.90;;;10.25;100.00;99936.84;5032523;28;21274;-89
2021/10/06 02:38:27;;;;;;;7.43;2.00;;;12.50;99.90;;;10.29;100.00;99941.69;5049801;28;20047;-89
2021/10/06 02:40:55;;;;;;;9.95;2.40;;;12.50;99.90;;;10.39;100.00;99941.38;5050542;28;20045;-90
2021/10/06 02:43:22;;;;;;;9.60;2.40;;;12.50;99.90;;;10.43;100.00;99942.66;5050577;28;20095;-90
2021/10/06 02:45:49;;;;;;;11.57;2.30;;;12.60;99.90;;;10.47;100.00;99940.38;5051000;28;20041;-90
2021/10/06 02:48:18;;;;;;;9.88;2.50;;;12.60;99.90;;;10.50;100.00;99956.31;5051082;28;20091;-90
2021/10/06 02:50:45;;;;;;;11.80;2.90;;;12.60;99.90;;;10.60;100.00;99950.53;5050928;28;20048;-89
2021/10/06 02:53:13;;;;;;;8.80;2.45;;;12.60;99.90;;;10.67;100.00;99951.41;5050893;28;20052;-91
2021/10/06 02:55:40;;;;;;;9.75;2.42;;;12.60;99.90;;;10.66;100.00;99955.16;5050793;28;20111;-90
2021/10/06 02:58:07;;;;;;;13.05;3.28;;;12.70;99.90;;;10.64;100.00;99951.78;5049350;28;20056;-90
2021/10/06 03:00:35;;;;;;;9.15;2.40;;;12.70;99.90;;;10.69;100.00;99955.59;5032575;28;20045;-89
2021/10/06 03:03:02;;;;;;;11.73;2.45;;;12.70;99.90;;;10.66;100.00;99952.44;5029801;28;20049;-90
2021/10/06 03:05:31;;;;;;;8.98;2.53;;;12.70;99.90;;;10.63;100.00;99955.56;5030266;28;20049;-89
2021/10/06 03:07:58;;;;;;;14.00;2.65;;;12.80;99.90;;;10.66;100.00;99955.16;5028987;28;20092;-90
2021/10/06 03:10:26;;;;;;;12.02;2.72;;;12.80;99.90;;;10.64;100.00;99949.06;5030125;28;20050;-90
2021/10/06 03:12:53;;;;;;;8.57;2.30;;;12.80;99.90;;;10.64;100.00;99946.34;5061079;28;20087;-90
2021/10/06 03:15:20;;;;;;;10.85;2.53;;;12.80;99.90;;;10.59;100.00;99944.25;5070237;28;20428;-90
2021/10/06 03:17:48;;;;;;;11.93;2.50;;;12.80;99.90;;;10.59;100.00;99948.84;5052725;28;20090;-90
2021/10/06 03:20:16;;;;;;;9.25;2.13;;;12.80;99.90;;;10.48;100.00;99942.91;5070300;28;20040;-89
2021/10/06 03:22:45;;;;;;;11.32;2.30;;;12.70;99.90;;;10.44;100.00;99947.06;5051759;28;20045;-89
2021/10/06 03:25:15;;;;;;;9.15;2.90;;;12.70;99.90;;;10.53;100.00;99953.22;5031754;28;20065;-89
2021/10/06 03:27:43;;;;;;;9.75;2.22;;;12.70;99.90;;;10.48;100.00;99948.34;5050099;28;20110;-90
2021/10/06 03:30:11;;;;;;;13.57;3.20;;;12.70;99.90;;;10.54;100.00;99942.09;5031760;28;20517;-89
2021/10/06 03:32:39;;;;;;;8.25;2.20;;;12.70;99.90;;;10.52;100.00;99952.34;5049401;28;20057;-90
2021/10/06 03:35:08;;;;;;;13.55;2.78;;;12.70;99.90;;;10.56;100.00;99948.19;5049873;28;20079;-89
2021/10/06 03:37:36;;;;;;;10.18;2.53;;;12.70;99.90;;;10.64;100.00;99957.25;5050684;28;20044;-91
2021/10/06 03:40:10;;;;;;;9.57;2.28;;;12.70;99.90;;;10.63;100.00;99952.84;5031224;28;20141;-90
2021/10/06 03:42:38;;;;;;;8.02;2.47;;;12.80;99.90;;;10.70;100.00;99961.88;5049643;28;20041;-89
2021/10/06 03:45:08;;;;;;;8.18;2.17;;;12.80;99.90;;;10.70;100.00;99967.31;5031348;28;20095;-90
2021/10/06 03:47:35;;;;;;;10.38;2.22;;;12.80;99.90;;;10.72;100.00;99959.81;5049855;28;20037;-90
2021/10/06 03:50:03;;;;;;;8.77;2.30;;;12.80;99.90;;;10.72;100.00;99968.00;5031231;28;20479;-89
2021/10/06 03:52:31;;;;;;;13.40;2.58;;;12.80;99.90;;;10.75;100.00;99971.13;5031567;28;20045;-89
2021/10/06 03:54:58;;;;;;;10.63;2.00;;;12.80;99.90;;;10.70;100.00;99970.03;5049323;28;20045;-90
2021/10/06 03:57:27;;;;;;;13.07;2.53;;;12.80;99.90;;;10.74;100.00;99969.47;5047908;28;20044;-90
2021/10/06 03:59:55;;;;;;;15.07;2.42;;;12.80;99.90;;;10.83;100.00;99978.28;5048989;28;20505;-88
2021/10/06 04:02:22;;;;;;;12.27;2.67;;;12.80;99.90;;;10.74;100.00;99979.53;5049411;28;20052;-89
2021/10/06 04:04:49;;;;;;;12.98;2.70;;;12.80;99.90;;;10.79;100.00;99981.63;5049229;28;20128;-89
2021/10/06 04:07:17;;;;;;;11.07;2.30;;;12.80;99.90;;;10.77;100.00;99979.09;5049497;28;20049;-89
2021/10/06 04:09:44;;;;;;;9.35;1.90;;;12.80;99.90;;;10.83;100.00;99978.28;5049635;28;20087;-89
2021/10/06 04:12:11;;;;;;;9.18;2.42;;;12.90;99.90;;;10.88;100.00;99978.53;5061975;28;20481;-88
2021/10/06 04:14:40;;;;;;;11.07;2.70;;;12.90;99.90;;;10.91;100.00;99980.06;5069145;28;20048;-90
2021/10/06 04:17:07;;;;;;;9.05;2.20;;;12.90;99.90;;;10.90;100.00;99990.06;5068940;28;20067;-89
2021/10/06 04:19:35;;;;;;;7.60;2.03;;;12.90;99.90;;;10.87;100.00;99990.50;5068588;28;20450;-91
2021/10/06 04:22:02;;;;;;;13.52;2.40;;;12.90;99.90;;;10.93;100.00;99986.97;5058396;28;20053;-89
2021/10/06 04:24:31;;;;;;;10.73;2.22;;;12.90;99.90;;;10.93;100.00;99983.41;5030951;28;20056;-89
2021/10/06 04:26:58;;;;;;;13.35;2.35;;;12.90;99.90;;;10.92;100.00;99990.72;5038436;28;20045;-89
2021/10/06 04:29:26;;;;;;;9.38;2.00;;;12.90;99.90;;;10.90;100.00;99995.53;5028741;28;20425;-89
2021/10/06 04:31:55;;;;;;;11.65;2.30;;;12.90;99.90;;;10.98;100.00;99991.81;5011104;28;20084;-89
2021/10/06 04:34:22;;;;;;;14.60;2.35;;;12.90;99.90;;;10.95;100.00;100001.22;5011132;28;20095;-90
2021/10/06 04:36:49;;;;;;;5.55;1.88;;;12.90;99.90;;;10.95;100.00;100003.09;5036264;28;20041;-90
2021/10/06 04:39:17;;;;;;;13.23;2.25;;;12.90;99.90;;;10.93;100.00;100007.91;5048323;28;20045;-90
2021/10/06 04:41:44;;;;;;;11.90;2.10;;;12.90;99.90;;;10.91;100.00;100013.56;5030684;28;20063;-90
2021/10/06 04:44:11;;;;;;;7.50;2.25;;;12.90;99.90;;;10.92;100.00;100011.66;5048825;28;20133;-89
2021/10/06 04:46:39;;;;;;;9.15;2.33;;;12.90;99.90;;;10.92;100.00;100017.94;5048394;28;20095;-90
2021/10/06 04:49:07;;;;;;;11.18;2.03;;;12.90;99.90;;;10.94;100.00;100018.59;5030292;28;20577;-89
2021/10/06 04:51:35;;;;;;;9.15;2.28;;;12.90;99.90;;;10.87;100.00;100017.72;5030129;28;20073;-89
2021/10/06 04:54:02;;;;;;;7.75;2.22;;;12.90;99.90;;;10.90;100.00;100013.75;5030983;28;20053;-90
2021/10/06 04:56:30;;;;;;;11.52;2.20;;;12.90;99.90;;;10.91;100.00;100019.00;5030660;28;20045;-88
2021/10/06 04:58:57;;;;;;;8.40;2.00;;;12.90;99.90;;;10.88;100.00;100022.09;5048109;28;20051;-89
2021/10/06 05:01:24;;;;;;;8.23;2.45;;;12.90;99.90;;;10.88;100.00;100019.38;5048692;28;20425;-90
2021/10/06 05:03:51;;;;;;;7.43;2.10;;;12.90;99.90;;;10.90;100.00;100025.47;5021186;28;20049;-90
2021/10/06 05:06:20;;;;;;;8.57;2.40;;;12.90;99.90;;;10.87;100.00;100016.84;5028697;28;20052;-90
2021/10/06 05:08:49;;;;;;;10.13;2.03;;;12.90;99.90;;;10.88;100.00;100024.81;5028821;28;20068;-93
2021/10/06 05:11:17;;;;;;;9.27;2.28;;;12.90;99.90;;;10.92;100.00;100030.72;5016323;28;20083;-93
2021/10/06 05:13:45;;;;;;;11.50;2.60;;;12.90;99.90;;;10.92;100.00;100026.09;5051914;28;20041;-91
2021/10/06 05:16:19;;;;;;;13.48;2.28;;;12.90;99.90;;;10.87;100.00;100030.47;5046893;28;20106;-91
2021/10/06 05:19:12;;;;;;;;;;;;;;;;;;;;;
2021/10/06 06:10:20;;;;;;;12.65;2.88;;;13.00;99.50;;;10.99;100.00;100053.41;5061593;28;20405;-89
2021/10/06 06:12:48;;;;;;;10.05;2.00;;;13.00;99.50;;;10.99;100.00;100058.00;5061217;28;20076;-89
2021/10/06 06:15:15;;;;;;;10.15;1.95;;;13.00;99.20;;;11.00;100.00;100044.16;5051598;28;20071;-89
2021/10/06 06:17:45;;;;;;;7.15;1.70;;;13.00;99.10;;;11.06;100.00;100042.53;5031002;28;20087;-92
2021/10/06 06:20:17;;;;;;;6.40;1.57;;;13.00;99.20;;;11.08;100.00;100044.03;5031259;28;20052;-91
2021/10/06 06:22:44;;;;;;;10.95;1.85;;;13.00;98.50;;;11.12;100.00;100060.81;5035266;28;20041;-91
2021/10/06 06:25:12;;;;;;;5.95;2.00;;;13.00;99.20;;;11.17;100.00;100062.94;5053242;28;20098;-89
2021/10/06 06:27:41;;;;;;;7.03;1.80;;;13.10;99.50;;;11.23;100.00;100062.13;5062554;28;20037;-91
2021/10/06 06:30:10;;;;;;;12.57;2.47;;;13.10;99.30;;;11.21;100.00;100062.31;5050818;28;20049;-91
2021/10/06 06:32:38;;;;;;;9.60;2.20;;;13.10;99.60;;;11.23;100.00;100064.84;5048543;28;20145;-89
2021/10/06 06:35:07;;;;;;;8.95;2.05;;;13.10;99.50;;;11.17;100.00;100065.66;5050803;28;20528;-89
2021/10/06 06:37:40;;;;;;;11.98;2.15;;;13.10;99.60;;;11.20;100.00;100071.56;5034383;28;20102;-93
2021/10/06 06:40:09;;;;;;;14.45;2.30;;;13.20;99.50;;;11.14;100.00;100073.19;5050795;28;20048;-90
2021/10/06 06:42:37;;;;;;;9.30;2.00;;;13.10;99.70;;;11.06;100.00;100075.22;5051670;28;20045;-93
2021/10/06 06:45:07;;;;;;;7.38;2.00;;;13.10;99.60;;;11.06;100.00;100080.66;5031035;28;20049;-87
2021/10/06 06:47:34;;;;;;;9.27;1.98;;;13.10;99.70;;;11.04;100.00;100088.19;5021961;28;20581;-86
2021/10/06 06:50:02;;;;;;;13.13;2.38;;;13.10;99.70;;;10.99;100.00;100085.25;5049784;28;20123;-86
2021/10/06 06:52:29;;;;;;;11.65;2.35;;;13.20;99.90;;;10.95;100.00;100084.78;5048116;28;20132;-86
2021/10/06 06:54:56;;;;;;;8.73;2.38;;;13.20;99.90;;;10.95;100.00;100095.69;5068088;28;20076;-85
2021/10/06 06:57:25;;;;;;;11.63;2.80;;;13.10;99.90;;;10.96;100.00;100090.00;5070166;28;20045;-85
2021/10/06 06:59:52;;;;;;;13.35;2.40;;;13.10;99.90;;;10.86;100.00;100110.47;5042192;28;20071;-86
2021/10/06 07:02:21;;;;;;;6.40;2.03;;;13.10;99.90;;;10.85;100.00;100112.34;5048724;28;20108;-85
2021/10/06 07:04:48;;;;;;;10.02;2.40;;;13.10;99.90;;;10.92;100.00;100090.63;5040110;28;20149;-85
2021/10/06 07:07:16;;;;;;;9.70;2.83;;;13.10;99.90;;;10.84;100.00;100107.94;5046398;28;20041;-86
2021/10/06 07:09:48;;;;;;;7.90;2.15;;;13.10;99.90;;;10.77;100.00;100098.88;5049397;28;20497;-85
2021/10/06 07:12:16;;;;;;;9.27;2.55;;;13.00;99.90;;;10.75;100.00;100112.66;5051191;28;20086;-85
2021/10/06 07:14:44;;;;;;;11.75;2.85;;;13.00;99.90;;;10.76;100.00;100116.25;5043809;28;20045;-85
2021/10/06 07:17:12;;;;;;;8.27;2.40;;;13.00;99.90;;;10.78;100.00;100111.44;5045313;28;20193;-86
2021/10/06 07:19:41;;;;;;;9.65;2.67;;;12.90;99.90;;;10.75;100.00;100117.28;5045965;28;20119;-86
2021/10/06 07:22:09;;;;;;;12.07;2.70;;;12.90;99.90;;;10.82;100.00;100112.75;5049388;28;20064;-86
2021/10/06 07:24:36;;;;;;;7.40;2.50;;;12.90;99.90;;;10.85;100.00;100116.94;5066688;28;20068;-86
2021/10/06 07:27:04;;;;;;;10.38;2.65;;;12.90;99.90;;;10.85;100.00;100116.94;5065391;28;20485;-86
2021/10/06 07:29:31;;;;;;;9.95;3.10;;;12.90;99.90;;;10.94;100.00;100113.88;5049383;28;20055;-86
2021/10/06 07:31:59;;;;;;;8.77;2.30;;;12.90;99.90;;;11.00;100.00;100122.31;5049399;28;20143;-86
2021/10/06 07:34:26;;;;;;;10.15;2.30;;;13.00;99.90;;;11.06;100.00;100114.19;5047703;28;20505;-85
2021/10/06 07:36:55;;;;;;;7.63;2.17;;;12.90;99.90;;;11.11;100.00;100108.16;5029681;28;20065;-86
2021/10/06 07:39:22;;;;;;;7.75;2.55;;;13.00;99.90;;;11.08;100.00;100113.97;5033934;28;20476;-86
2021/10/06 07:41:49;;;;;;;7.88;2.53;;;13.00;99.90;;;10.94;100.00;100115.75;5049413;28;20650;-86
2021/10/06 07:44:17;;;;;;;6.75;2.08;;;13.00;99.90;;;10.96;100.00;100130.84;5062466;28;20044;-88
2021/10/06 07:46:45;;;;;;;11.38;2.60;;;13.00;99.90;;;10.97;100.00;100118.09;5050950;28;20468;-88
2021/10/06 07:49:13;;;;;;;13.40;2.25;;;13.00;99.90;;;10.97;100.00;100126.28;5065509;28;20479;-90
2021/10/06 07:51:40;;;;;;;8.32;2.40;;;13.00;99.90;;;10.91;100.00;100127.91;5047184;28;20053;-89
2021/10/06 07:54:09;;;;;;;6.00;1.95;;;13.00;99.90;;;10.93;100.00;100131.25;5045118;28;20052;-88
2021/10/06 07:56:36;;;;;;;9.93;2.20;;;13.00;99.90;;;11.07;100.00;100131.38;5031146;28;20049;-89
2021/10/06 07:59:04;;;;;;;11.18;1.92;;;13.00;99.90;;;11.26;100.00;100136.13;5048759;28;20107;-88
2021/10/06 08:01:31;;;;;;;8.90;2.28;;;13.00;99.90;;;11.37;100.00;100136.63;5031073;28;20779;-89
2021/10/06 08:03:59;;;;;;;8.25;2.05;;;13.00;99.90;;;11.43;100.00;100141.28;5048203;28;20493;-89
2021/10/06 08:06:26;;;;;;;10.65;2.33;;;13.10;99.90;;;11.52;100.00;100137.34;5048431;28;20087;-88
2021/10/06 08:08:53;;;;;;;7.72;2.05;;;13.10;99.90;;;11.57;100.00;100132.13;5020851;28;20049;-89
2021/10/06 08:11:22;;;;;;;8.38;1.73;;;13.20;99.90;;;11.59;100.00;100134.66;5034176;28;20088;-90
2021/10/06 08:13:50;;;;;;;9.18;1.92;;;13.20;99.90;;;11.55;100.00;100143.22;5045579;28;20504;-89
2021/10/06 08:16:17;;;;;;;9.32;2.08;;;13.30;99.90;;;11.43;100.00;100146.72;5065860;28;20044;-89
2021/10/06 08:18:44;;;;;;;7.50;1.90;;;13.30;99.90;;;11.37;100.00;100142.06;5060058;28;20245;-88
2021/10/06 08:21:12;;;;;;;8.65;1.90;;;13.20;99.90;;;11.33;100.00;100150.63;5041826;28;20045;-89
2021/10/06 08:23:39;;;;;;;10.45;2.20;;;13.30;99.90;;;11.31;100.00;100150.00;5045693;28;20041;-88
2021/10/06 08:26:06;;;;;;;11.57;2.25;;;13.30;99.90;;;11.33;100.00;100141.63;5030737;28;20041;-90
2021/10/06 08:28:35;;;;;;;11.40;2.05;;;13.30;99.90;;;11.26;100.00;100149.75;5048711;28;20085;-88
2021/10/06 08:31:03;;;;;;;8.38;2.17;;;13.30;99.90;;;11.24;100.00;100153.72;5048574;28;20102;-89
2021/10/06 08:33:30;;;;;;;9.07;1.92;;;13.30;99.90;;;11.20;100.00;100160.59;5055659;28;20068;-89
2021/10/06 08:35:58;;;;;;;9.25;2.85;;;13.20;99.90;;;11.22;100.00;100172.97;5050646;28;20653;-89
2021/10/06 08:38:25;;;;;;;6.88;1.85;;;13.20;99.90;;;11.24;100.00;100164.63;5046498;28;20490;-88
2021/10/06 08:40:53;;;;;;;12.55;2.83;;;13.20;99.90;;;11.17;100.00;100169.16;5036566;28;20044;-87
2021/10/06 08:43:20;;;;;;;6.40;1.80;;;13.20;99.90;;;11.18;100.00;100170.84;5052288;28;20116;-88
2021/10/06 08:45:49;;;;;;;7.95;2.20;;;13.20;99.90;;;11.22;100.00;100172.13;5041870;28;20103;-89
2021/10/06 08:48:16;;;;;;;8.82;2.13;;;13.20;99.90;;;11.21;100.00;100182.16;5028966;28;20200;-88
2021/10/06 08:50:44;;;;;;;11.27;2.53;;;13.20;99.90;;;11.24;100.00;100181.78;5048464;28;20094;-88
2021/10/06 08:53:11;;;;;;;9.73;1.83;;;13.20;99.90;;;11.24;100.00;100187.25;5059266;28;20102;-88
2021/10/06 08:55:39;;;;;;;12.10;2.47;;;13.20;99.90;;;11.18;100.00;100176.31;5055437;28;20072;-89
2021/10/06 08:58:08;;;;;;;10.02;2.15;;;13.20;99.90;;;11.28;100.00;100183.06;5047969;28;20118;-88
2021/10/06 09:00:54;;;;;;;8.98;1.80;;;13.20;99.90;;;11.41;100.00;100176.88;5052710;28;20068;-88
2021/10/06 09:03:32;;;;;;;8.45;2.20;;;13.20;99.90;;;11.47;100.00;100178.81;5039430;28;20075;-89
2021/10/06 09:06:08;;;;;;;5.70;2.10;;;13.20;99.90;;;11.53;100.00;100185.34;5061840;28;20060;-90
2021/10/06 09:08:36;;;;;;;12.70;2.28;;;13.30;99.90;;;11.53;100.00;100199.81;5068556;28;20048;-89
2021/10/06 09:11:07;;;;;;;11.00;2.00;;;13.30;99.90;;;11.51;100.00;100199.16;5054800;28;20044;-88
2021/10/06 09:13:37;;;;;;;7.45;1.90;;;13.30;99.90;;;11.47;100.00;100208.78;5056272;28;20073;-89
2021/10/06 09:16:06;;;;;;;5.75;1.73;;;13.30;99.90;;;11.42;100.00;100199.53;5048279;28;20052;-90
2021/10/06 09:18:35;;;;;;;8.07;1.83;;;13.30;99.90;;;11.45;100.00;100202.69;5045115;28;20046;-89
2021/10/06 09:21:06;;;;;;;11.30;2.10;;;13.30;99.90;;;11.48;100.00;100205.03;5028745;28;20045;-92
2021/10/06 09:23:38;;;;;;;6.38;1.80;;;13.40;99.90;;;11.48;100.00;100204.16;5041446;28;20048;-89
2021/10/06 09:26:08;;;;;;;11.15;1.90;;;13.40;99.90;;;11.57;100.00;100213.88;5072025;28;20063;-90
2021/10/06 09:28:39;;;;;;;7.75;1.95;;;13.40;99.90;;;11.62;100.00;100205.97;5059601;28;20329;-91
2021/10/06 09:31:11;;;;;;;8.57;1.80;;;13.40;99.90;;;11.62;100.00;100214.16;5051791;28;20045;-91
2021/10/06 09:33:42;;;;;;;6.00;1.55;;;13.40;99.90;;;11.54;100.00;100219.75;5060148;28;20044;-90
2021/10/06 09:36:14;;;;;;;5.85;2.05;;;13.40;99.90;;;11.47;100.00;100230.59;5071970;28;20066;-89
2021/10/06 09:38:49;;;;;;;7.68;2.10;;;13.40;99.90;;;11.51;100.00;100222.88;5071402;28;20045;-90
2021/10/06 09:41:28;;;;;;;8.05;2.05;;;13.40;99.90;;;11.53;100.00;100223.50;5071837;28;20045;-90
2021/10/06 09:44:03;;;;;;;6.40;1.90;;;13.40;99.90;;;11.53;100.00;100228.97;5051667;23;20187;-83
2021/10/06 09:46:46;;;;;;;4.35;1.73;;;13.50;99.90;;;11.63;100.00;100215.84;4993308;28;20138;-83
2021/10/06 09:49:22;;;;;;;7.43;2.00;;;13.50;99.90;;;11.65;100.00;100213.75;5004486;28;20498;-83
2021/10/06 09:51:51;;;;;;;5.70;2.28;;;13.50;99.90;;;11.70;100.00;100224.88;5031465;28;20100;-84
2021/10/06 09:54:19;;;;;;;6.30;1.95;;;13.50;99.90;;;11.78;100.00;100221.16;5034069;28;20092;-84
2021/10/06 09:56:49;;;;;;;4.88;1.67;;;13.50;99.90;;;11.80;100.00;100224.53;5031454;28;20041;-84
2021/10/06 09:59:18;;;;;;;4.20;1.30;;;13.50;99.90;;;11.89;100.00;100230.69;5030899;28;20068;-84
2021/10/06 10:01:48;;;;;;;8.07;2.00;;;13.60;99.90;;;12.00;100.00;100230.16;4994458;28;20443;-83
2021/10/06 10:04:16;;;;;;;7.45;1.70;;;13.60;99.90;;;12.09;100.00;100228.13;5010248;28;20197;-83
2021/10/06 10:06:43;;;;;;;5.55;1.80;;;13.60;99.90;;;12.06;100.00;100233.97;5004750;28;20046;-84
2021/10/06 10:09:13;;;;;;;5.82;1.55;;;13.60;99.90;;;12.06;100.00;100233.97;5015248;28;20107;-82
2021/10/06 10:11:42;;;;;;;7.03;1.63;;;13.60;99.90;;;11.99;100.00;100242.09;5012715;28;20055;-83
2021/10/06 10:14:11;;;;;;;8.35;1.73;;;13.60;99.90;;;11.88;100.00;100251.66;5026811;28;20042;-83
2021/10/06 10:16:39;;;;;;;6.93;1.55;;;13.60;99.90;;;11.86;100.00;100253.75;5020618;28;20038;-84
2021/10/06 10:19:11;;;;;;;5.13;1.60;;;13.60;99.90;;;11.78;100.00;100256.59;5006747;28;20038;-83
2021/10/06 10:21:44;;;;;;;5.90;1.50;;;13.70;99.90;;;11.67;100.00;100263.47;5001189;28;20053;-84
2021/10/06 10:24:14;;;;;;;5.10;1.30;;;13.70;99.90;;;11.72;100.00;100260.97;4994623;28;20041;-83
2021/10/06 10:27:04;;;;;;;4.87;1.37;;;13.70;99.90;;;11.79;100.00;100271.09;5015900;28;20054;-84
2021/10/06 10:29:44;;;;;;;5.75;1.60;;;13.60;99.90;;;11.71;100.00;100274.81;5004243;28;20045;-84
2021/10/06 10:32:17;;;;;;;6.57;1.60;;;13.60;99.90;;;11.76;100.00;100276.94;5008147;28;20053;-83
2021/10/06 10:35:11;;;;;;;5.07;1.23;;;13.60;99.90;;;11.72;100.00;100282.78;5000838;28;20096;-83
2021/10/06 10:38:05;;;;;;;6.78;1.60;;;13.70;99.90;;;11.77;100.00;100287.66;4983045;28;20581;-86
2021/10/06 10:41:02;;;;;;;7.07;1.60;;;13.70;99.90;;;11.77;100.00;100290.38;5009919;28;20053;-86
2021/10/06 10:43:33;;;;;;;4.03;1.50;;;13.60;99.90;;;11.69;100.00;100288.63;5014972;28;20060;-86
2021/10/06 10:46:22;;;;;;;7.72;1.60;;;13.60;99.90;;;11.67;100.00;100293.44;5009681;28;20046;-86
2021/10/06 10:49:11;;;;;;;6.93;1.83;;;13.60;99.90;;;11.72;100.00;100299.13;5007703;28;20596;-87
2021/10/06 10:51:55;;;;;;;6.40;1.75;;;13.60;99.90;;;11.78;100.00;100307.56;5003140;28;20132;-86
2021/10/06 10:54:39;;;;;;;5.85;1.50;;;13.60;99.90;;;11.80;100.00;100303.59;5022507;28;20834;-86
2021/10/06 10:57:25;;;;;;;7.85;1.60;;;13.70;99.90;;;11.88;100.00;100305.31;5003950;28;20042;-87
2021/10/06 10:59:56;;;;;;;6.15;2.17;;;13.70;99.90;;;11.94;100.00;100301.88;4983973;28;20123;-87
2021/10/06 11:02:29;;;;;;;7.30;1.98;;;13.70;99.90;;;12.06;100.00;100305.72;5010353;28;20131;-87
2021/10/06 11:04:59;;;;;;;7.93;2.05;;;13.80;99.90;;;12.12;100.00;100304.91;5000706;28;20127;-88